Aviation Digital Data Service (ADDS)

Output produced by TAFs form (0634 UTC 24 September 2017)
found at http://aviationweather.gov/adds/tafs/
 
KMAF 240618Z 2406/2506 15018KT P6SM SCT040 BKN150 
     TEMPO 2406/2410 VRB20G30KT 3SM TSRA OVC030CB 
     FM241800 16018G28KT P6SM SCT035 BKN250